sensor_id;sensor_type;location;lat;lon;timestamp;pressure;altitude;pressure_sealevel;temperature
54746;BMP180;40640;48.130;11.356;2022-12-10T00:00:27;94178.00;;;4.30
54746;BMP180;40640;48.130;11.356;2022-12-10T00:04:30;94176.00;;;4.30
54746;BMP180;40640;48.130;11.356;2022-12-10T00:08:33;94183.00;;;4.30
54746;BMP180;40640;48.130;11.356;2022-12-10T00:12:35;94186.00;;;4.30
54746;BMP180;40640;48.130;11.356;2022-12-10T00:16:40;94183.00;;;4.30
54746;BMP180;40640;48.130;11.356;2022-12-10T00:20:43;94180.00;;;4.30
54746;BMP180;40640;48.130;11.356;2022-12-10T00:24:46;94181.00;;;4.30
54746;BMP180;40640;48.130;11.356;2022-12-10T00:28:49;94178.00;;;4.30
54746;BMP180;40640;48.130;11.356;2022-12-10T00:32:53;94170.00;;;4.30
54746;BMP180;40640;48.130;11.356;2022-12-10T00:36:56;94168.00;;;4.30
54746;BMP180;40640;48.130;11.356;2022-12-10T00:40:59;94178.00;;;4.30
54746;BMP180;40640;48.130;11.356;2022-12-10T00:45:03;94171.00;;;4.30
54746;BMP180;40640;48.130;11.356;2022-12-10T00:49:07;94178.00;;;4.30
54746;BMP180;40640;48.130;11.356;2022-12-10T00:53:10;94182.00;;;4.20
54746;BMP180;40640;48.130;11.356;2022-12-10T00:57:13;94204.00;;;4.20
54746;BMP180;40640;48.130;11.356;2022-12-10T01:01:18;94200.00;;;4.20
54746;BMP180;40640;48.130;11.356;2022-12-10T01:05:24;94209.00;;;4.20
54746;BMP180;40640;48.130;11.356;2022-12-10T01:09:29;94209.00;;;4.20
54746;BMP180;40640;48.130;11.356;2022-12-10T01:13:32;94214.00;;;4.10
54746;BMP180;40640;48.130;11.356;2022-12-10T01:17:35;94211.00;;;4.20
54746;BMP180;40640;48.130;11.356;2022-12-10T01:21:39;94197.00;;;4.10
54746;BMP180;40640;48.130;11.356;2022-12-10T01:25:42;94207.00;;;4.00
54746;BMP180;40640;48.130;11.356;2022-12-10T01:29:45;94214.00;;;4.00
54746;BMP180;40640;48.130;11.356;2022-12-10T01:33:48;94202.00;;;4.00
54746;BMP180;40640;48.130;11.356;2022-12-10T01:37:52;94207.00;;;4.10
54746;BMP180;40640;48.130;11.356;2022-12-10T01:41:59;94206.00;;;4.00
54746;BMP180;40640;48.130;11.356;2022-12-10T01:46:02;94214.00;;;4.00
54746;BMP180;40640;48.130;11.356;2022-12-10T01:50:07;94218.00;;;4.00
54746;BMP180;40640;48.130;11.356;2022-12-10T01:54:15;94217.00;;;3.90
54746;BMP180;40640;48.130;11.356;2022-12-10T01:58:18;94220.00;;;3.80
54746;BMP180;40640;48.130;11.356;2022-12-10T02:02:29;94227.00;;;3.80
54746;BMP180;40640;48.130;11.356;2022-12-10T02:06:44;94227.00;;;3.80
54746;BMP180;40640;48.130;11.356;2022-12-10T02:10:59;94220.00;;;3.70
54746;BMP180;40640;48.130;11.356;2022-12-10T02:15:09;94227.00;;;3.70
54746;BMP180;40640;48.130;11.356;2022-12-10T02:19:17;94222.00;;;3.80
54746;BMP180;40640;48.130;11.356;2022-12-10T02:23:26;94218.00;;;3.80
54746;BMP180;40640;48.130;11.356;2022-12-10T02:27:37;94218.00;;;3.80
54746;BMP180;40640;48.130;11.356;2022-12-10T02:31:47;94216.00;;;3.80
54746;BMP180;40640;48.130;11.356;2022-12-10T02:35:53;94217.00;;;3.80
54746;BMP180;40640;48.130;11.356;2022-12-10T02:39:59;94214.00;;;3.80
54746;BMP180;40640;48.130;11.356;2022-12-10T02:44:11;94209.00;;;3.80
54746;BMP180;40640;48.130;11.356;2022-12-10T02:48:17;94207.00;;;3.90
54746;BMP180;40640;48.130;11.356;2022-12-10T02:52:22;94209.00;;;3.80
54746;BMP180;40640;48.130;11.356;2022-12-10T02:56:33;94198.00;;;3.80
54746;BMP180;40640;48.130;11.356;2022-12-10T03:00:41;94193.00;;;3.70
54746;BMP180;40640;48.130;11.356;2022-12-10T03:04:54;94176.00;;;3.70
54746;BMP180;40640;48.130;11.356;2022-12-10T03:09:02;94180.00;;;3.70
54746;BMP180;40640;48.130;11.356;2022-12-10T03:13:09;94186.00;;;3.70
54746;BMP180;40640;48.130;11.356;2022-12-10T03:17:13;94190.00;;;3.70
54746;BMP180;40640;48.130;11.356;2022-12-10T03:21:18;94194.00;;;3.80
54746;BMP180;40640;48.130;11.356;2022-12-10T03:25:24;94180.00;;;3.80
54746;BMP180;40640;48.130;11.356;2022-12-10T03:29:29;94169.00;;;3.80
54746;BMP180;40640;48.130;11.356;2022-12-10T03:33:34;94173.00;;;3.80
54746;BMP180;40640;48.130;11.356;2022-12-10T03:37:38;94188.00;;;3.80
54746;BMP180;40640;48.130;11.356;2022-12-10T03:41:41;94188.00;;;3.80
54746;BMP180;40640;48.130;11.356;2022-12-10T03:45:44;94177.00;;;3.80
54746;BMP180;40640;48.130;11.356;2022-12-10T03:49:47;94170.00;;;3.80
54746;BMP180;40640;48.130;11.356;2022-12-10T03:53:51;94180.00;;;3.70
54746;BMP180;40640;48.130;11.356;2022-12-10T03:57:54;94193.00;;;3.80
54746;BMP180;40640;48.130;11.356;2022-12-10T04:01:57;94196.00;;;3.70
54746;BMP180;40640;48.130;11.356;2022-12-10T04:06:01;94194.00;;;3.70
54746;BMP180;40640;48.130;11.356;2022-12-10T04:10:06;94194.00;;;3.80
54746;BMP180;40640;48.130;11.356;2022-12-10T04:14:10;94199.00;;;3.80
54746;BMP180;40640;48.130;11.356;2022-12-10T04:18:30;94195.00;;;3.70
54746;BMP180;40640;48.130;11.356;2022-12-10T04:22:33;94202.00;;;3.70
54746;BMP180;40640;48.130;11.356;2022-12-10T04:26:56;94212.00;;;3.70
54746;BMP180;40640;48.130;11.356;2022-12-10T04:30:59;94219.00;;;3.70
54746;BMP180;40640;48.130;11.356;2022-12-10T04:35:03;94213.00;;;3.70
54746;BMP180;40640;48.130;11.356;2022-12-10T04:39:06;94214.00;;;3.70
54746;BMP180;40640;48.130;11.356;2022-12-10T04:43:10;94220.00;;;3.70
54746;BMP180;40640;48.130;11.356;2022-12-10T04:47:13;94210.00;;;3.70
54746;BMP180;40640;48.130;11.356;2022-12-10T04:51:15;94203.00;;;3.60
54746;BMP180;40640;48.130;11.356;2022-12-10T04:55:18;94211.00;;;3.70
54746;BMP180;40640;48.130;11.356;2022-12-10T04:59:23;94200.00;;;3.70
54746;BMP180;40640;48.130;11.356;2022-12-10T05:03:27;94209.00;;;3.60
54746;BMP180;40640;48.130;11.356;2022-12-10T05:07:30;94198.00;;;3.60
54746;BMP180;40640;48.130;11.356;2022-12-10T05:11:34;94192.00;;;3.60
54746;BMP180;40640;48.130;11.356;2022-12-10T05:15:39;94183.00;;;3.60
54746;BMP180;40640;48.130;11.356;2022-12-10T05:19:41;94187.00;;;3.60
54746;BMP180;40640;48.130;11.356;2022-12-10T05:23:46;94190.00;;;3.60
54746;BMP180;40640;48.130;11.356;2022-12-10T05:27:49;94188.00;;;3.60
54746;BMP180;40640;48.130;11.356;2022-12-10T05:31:54;94202.00;;;3.60
54746;BMP180;40640;48.130;11.356;2022-12-10T05:35:58;94207.00;;;3.70
54746;BMP180;40640;48.130;11.356;2022-12-10T05:40:02;94203.00;;;3.60
54746;BMP180;40640;48.130;11.356;2022-12-10T05:44:05;94211.00;;;3.70
54746;BMP180;40640;48.130;11.356;2022-12-10T05:48:11;94204.00;;;3.60
54746;BMP180;40640;48.130;11.356;2022-12-10T05:52:14;94214.00;;;3.60
54746;BMP180;40640;48.130;11.356;2022-12-10T05:56:19;94222.00;;;3.70
54746;BMP180;40640;48.130;11.356;2022-12-10T06:00:22;94219.00;;;3.50
54746;BMP180;40640;48.130;11.356;2022-12-10T06:04:26;94217.00;;;3.50
54746;BMP180;40640;48.130;11.356;2022-12-10T06:08:30;94220.00;;;3.50
54746;BMP180;40640;48.130;11.356;2022-12-10T06:12:32;94210.00;;;3.50
54746;BMP180;40640;48.130;11.356;2022-12-10T06:16:35;94212.00;;;3.50
54746;BMP180;40640;48.130;11.356;2022-12-10T06:20:39;94209.00;;;3.50
54746;BMP180;40640;48.130;11.356;2022-12-10T06:24:47;94210.00;;;3.50
54746;BMP180;40640;48.130;11.356;2022-12-10T06:28:51;94212.00;;;3.50
54746;BMP180;40640;48.130;11.356;2022-12-10T06:32:54;94215.00;;;3.40
54746;BMP180;40640;48.130;11.356;2022-12-10T06:36:59;94219.00;;;3.40
54746;BMP180;40640;48.130;11.356;2022-12-10T06:41:04;94204.00;;;3.20
54746;BMP180;40640;48.130;11.356;2022-12-10T06:45:08;94214.00;;;3.30
54746;BMP180;40640;48.130;11.356;2022-12-10T06:49:11;94222.00;;;3.30
54746;BMP180;40640;48.130;11.356;2022-12-10T06:53:15;94218.00;;;3.40
54746;BMP180;40640;48.130;11.356;2022-12-10T06:57:18;94211.00;;;3.40
54746;BMP180;40640;48.130;11.356;2022-12-10T07:01:22;94215.00;;;3.40
54746;BMP180;40640;48.130;11.356;2022-12-10T07:05:27;94224.00;;;3.40
54746;BMP180;40640;48.130;11.356;2022-12-10T07:09:32;94222.00;;;3.40
54746;BMP180;40640;48.130;11.356;2022-12-10T07:13:35;94223.00;;;3.40
54746;BMP180;40640;48.130;11.356;2022-12-10T07:17:38;94226.00;;;3.50
54746;BMP180;40640;48.130;11.356;2022-12-10T07:21:41;94249.00;;;3.50
54746;BMP180;40640;48.130;11.356;2022-12-10T07:25:46;94241.00;;;3.50
54746;BMP180;40640;48.130;11.356;2022-12-10T07:29:49;94252.00;;;3.40
54746;BMP180;40640;48.130;11.356;2022-12-10T07:33:53;94241.00;;;3.40
54746;BMP180;40640;48.130;11.356;2022-12-10T07:37:56;94245.00;;;3.40
54746;BMP180;40640;48.130;11.356;2022-12-10T07:42:00;94239.00;;;3.40
54746;BMP180;40640;48.130;11.356;2022-12-10T07:46:03;94242.00;;;3.50
54746;BMP180;40640;48.130;11.356;2022-12-10T07:50:07;94243.00;;;3.40
54746;BMP180;40640;48.130;11.356;2022-12-10T07:54:10;94241.00;;;3.40
54746;BMP180;40640;48.130;11.356;2022-12-10T07:58:14;94240.00;;;3.30
54746;BMP180;40640;48.130;11.356;2022-12-10T08:02:17;94236.00;;;3.30
54746;BMP180;40640;48.130;11.356;2022-12-10T08:06:21;94247.00;;;3.30
54746;BMP180;40640;48.130;11.356;2022-12-10T08:10:24;94249.00;;;3.40
54746;BMP180;40640;48.130;11.356;2022-12-10T08:14:28;94252.00;;;3.40
54746;BMP180;40640;48.130;11.356;2022-12-10T08:18:32;94246.00;;;3.40
54746;BMP180;40640;48.130;11.356;2022-12-10T08:22:35;94249.00;;;3.40
54746;BMP180;40640;48.130;11.356;2022-12-10T08:26:39;94254.00;;;3.40
54746;BMP180;40640;48.130;11.356;2022-12-10T08:30:46;94257.00;;;3.40
54746;BMP180;40640;48.130;11.356;2022-12-10T08:34:49;94252.00;;;3.40
54746;BMP180;40640;48.130;11.356;2022-12-10T08:38:52;94259.00;;;3.30
54746;BMP180;40640;48.130;11.356;2022-12-10T08:42:56;94264.00;;;3.40
54746;BMP180;40640;48.130;11.356;2022-12-10T08:47:00;94262.00;;;3.40
54746;BMP180;40640;48.130;11.356;2022-12-10T08:51:03;94257.00;;;3.50
54746;BMP180;40640;48.130;11.356;2022-12-10T08:55:07;94262.00;;;3.60
54746;BMP180;40640;48.130;11.356;2022-12-10T08:59:10;94263.00;;;3.60
54746;BMP180;40640;48.130;11.356;2022-12-10T09:03:17;94271.00;;;3.60
54746;BMP180;40640;48.130;11.356;2022-12-10T09:07:20;94269.00;;;3.50
54746;BMP180;40640;48.130;11.356;2022-12-10T09:11:25;94267.00;;;3.60
54746;BMP180;40640;48.130;11.356;2022-12-10T09:15:28;94269.00;;;3.40
54746;BMP180;40640;48.130;11.356;2022-12-10T09:19:32;94263.00;;;3.60
54746;BMP180;40640;48.130;11.356;2022-12-10T09:23:35;94280.00;;;3.50
54746;BMP180;40640;48.130;11.356;2022-12-10T09:27:38;94289.00;;;3.60
54746;BMP180;40640;48.130;11.356;2022-12-10T09:31:40;94291.00;;;3.70
54746;BMP180;40640;48.130;11.356;2022-12-10T09:35:45;94298.00;;;3.70
54746;BMP180;40640;48.130;11.356;2022-12-10T09:39:48;94292.00;;;3.70
54746;BMP180;40640;48.130;11.356;2022-12-10T09:43:55;94290.00;;;3.70
54746;BMP180;40640;48.130;11.356;2022-12-10T09:48:04;94281.00;;;3.70
54746;BMP180;40640;48.130;11.356;2022-12-10T09:52:13;94287.00;;;3.70
54746;BMP180;40640;48.130;11.356;2022-12-10T09:56:21;94294.00;;;3.70
54746;BMP180;40640;48.130;11.356;2022-12-10T10:00:30;94287.00;;;3.80
54746;BMP180;40640;48.130;11.356;2022-12-10T10:04:34;94284.00;;;3.90
54746;BMP180;40640;48.130;11.356;2022-12-10T10:08:41;94288.00;;;3.90
54746;BMP180;40640;48.130;11.356;2022-12-10T10:12:45;94275.00;;;3.90
54746;BMP180;40640;48.130;11.356;2022-12-10T10:16:51;94278.00;;;3.90
54746;BMP180;40640;48.130;11.356;2022-12-10T10:20:56;94278.00;;;4.00
54746;BMP180;40640;48.130;11.356;2022-12-10T10:25:01;94284.00;;;3.90
54746;BMP180;40640;48.130;11.356;2022-12-10T10:29:05;94289.00;;;4.00
54746;BMP180;40640;48.130;11.356;2022-12-10T10:33:10;94287.00;;;3.80
54746;BMP180;40640;48.130;11.356;2022-12-10T10:37:20;94282.00;;;3.80
54746;BMP180;40640;48.130;11.356;2022-12-10T10:41:24;94271.00;;;3.90
54746;BMP180;40640;48.130;11.356;2022-12-10T10:45:39;94268.00;;;3.90
54746;BMP180;40640;48.130;11.356;2022-12-10T10:49:44;94274.00;;;3.90
54746;BMP180;40640;48.130;11.356;2022-12-10T10:53:48;94269.00;;;4.00
54746;BMP180;40640;48.130;11.356;2022-12-10T10:57:54;94285.00;;;4.10
54746;BMP180;40640;48.130;11.356;2022-12-10T11:02:02;94278.00;;;4.00
54746;BMP180;40640;48.130;11.356;2022-12-10T11:06:07;94277.00;;;4.00
54746;BMP180;40640;48.130;11.356;2022-12-10T11:10:17;94280.00;;;4.10
54746;BMP180;40640;48.130;11.356;2022-12-10T11:14:26;94266.00;;;4.20
54746;BMP180;40640;48.130;11.356;2022-12-10T11:18:31;94257.00;;;4.20
54746;BMP180;40640;48.130;11.356;2022-12-10T11:22:34;94258.00;;;4.20
54746;BMP180;40640;48.130;11.356;2022-12-10T11:26:50;94266.00;;;4.40
54746;BMP180;40640;48.130;11.356;2022-12-10T11:31:08;94264.00;;;4.40
54746;BMP180;40640;48.130;11.356;2022-12-10T11:35:19;94253.00;;;4.50
54746;BMP180;40640;48.130;11.356;2022-12-10T11:39:33;94246.00;;;4.50
54746;BMP180;40640;48.130;11.356;2022-12-10T11:43:47;94247.00;;;4.50
54746;BMP180;40640;48.130;11.356;2022-12-10T11:48:08;94266.00;;;4.50
54746;BMP180;40640;48.130;11.356;2022-12-10T11:52:19;94263.00;;;4.30
54746;BMP180;40640;48.130;11.356;2022-12-10T11:56:30;94288.00;;;4.40
54746;BMP180;40640;48.130;11.356;2022-12-10T12:00:40;94276.00;;;4.40
54746;BMP180;40640;48.130;11.356;2022-12-10T12:05:00;94287.00;;;4.40
54746;BMP180;40640;48.130;11.356;2022-12-10T12:09:09;94273.00;;;4.30
54746;BMP180;40640;48.130;11.356;2022-12-10T12:13:17;94279.00;;;4.30
54746;BMP180;40640;48.130;11.356;2022-12-10T12:17:25;94266.00;;;4.30
54746;BMP180;40640;48.130;11.356;2022-12-10T12:21:31;94267.00;;;4.30
54746;BMP180;40640;48.130;11.356;2022-12-10T12:25:38;94272.00;;;4.40
54746;BMP180;40640;48.130;11.356;2022-12-10T12:29:48;94278.00;;;4.40
54746;BMP180;40640;48.130;11.356;2022-12-10T12:33:59;94282.00;;;4.40
54746;BMP180;40640;48.130;11.356;2022-12-10T12:38:18;94283.00;;;4.40
54746;BMP180;40640;48.130;11.356;2022-12-10T12:42:24;94291.00;;;4.40
54746;BMP180;40640;48.130;11.356;2022-12-10T12:46:33;94292.00;;;4.40
54746;BMP180;40640;48.130;11.356;2022-12-10T12:50:43;94309.00;;;4.40
54746;BMP180;40640;48.130;11.356;2022-12-10T12:54:48;94316.00;;;4.30
54746;BMP180;40640;48.130;11.356;2022-12-10T12:59:01;94316.00;;;4.30
54746;BMP180;40640;48.130;11.356;2022-12-10T13:03:19;94324.00;;;4.30
54746;BMP180;40640;48.130;11.356;2022-12-10T13:07:33;94325.00;;;4.30
54746;BMP180;40640;48.130;11.356;2022-12-10T13:11:39;94321.00;;;4.20
54746;BMP180;40640;48.130;11.356;2022-12-10T13:15:43;94328.00;;;4.20
54746;BMP180;40640;48.130;11.356;2022-12-10T13:19:46;94318.00;;;4.20
54746;BMP180;40640;48.130;11.356;2022-12-10T13:23:50;94335.00;;;4.20
54746;BMP180;40640;48.130;11.356;2022-12-10T13:27:57;94342.00;;;4.20
54746;BMP180;40640;48.130;11.356;2022-12-10T13:32:02;94345.00;;;4.10
54746;BMP180;40640;48.130;11.356;2022-12-10T13:36:05;94357.00;;;4.10
54746;BMP180;40640;48.130;11.356;2022-12-10T13:40:36;94359.00;;;4.20
54746;BMP180;40640;48.130;11.356;2022-12-10T13:45:02;94362.00;;;4.10
54746;BMP180;40640;48.130;11.356;2022-12-10T13:49:12;94365.00;;;4.00
54746;BMP180;40640;48.130;11.356;2022-12-10T13:53:24;94370.00;;;4.00
54746;BMP180;40640;48.130;11.356;2022-12-10T13:57:47;94378.00;;;4.00
54746;BMP180;40640;48.130;11.356;2022-12-10T14:02:01;94385.00;;;4.00
54746;BMP180;40640;48.130;11.356;2022-12-10T14:06:13;94388.00;;;4.00
54746;BMP180;40640;48.130;11.356;2022-12-10T14:10:19;94396.00;;;4.00
54746;BMP180;40640;48.130;11.356;2022-12-10T14:14:29;94400.00;;;3.90
54746;BMP180;40640;48.130;11.356;2022-12-10T14:18:35;94406.00;;;4.00
54746;BMP180;40640;48.130;11.356;2022-12-10T14:22:43;94403.00;;;3.90
54746;BMP180;40640;48.130;11.356;2022-12-10T14:26:46;94410.00;;;3.90
54746;BMP180;40640;48.130;11.356;2022-12-10T14:30:50;94413.00;;;4.00
54746;BMP180;40640;48.130;11.356;2022-12-10T14:34:56;94416.00;;;3.90
54746;BMP180;40640;48.130;11.356;2022-12-10T14:39:00;94423.00;;;3.90
54746;BMP180;40640;48.130;11.356;2022-12-10T14:43:05;94422.00;;;4.00
54746;BMP180;40640;48.130;11.356;2022-12-10T14:47:14;94438.00;;;3.90
54746;BMP180;40640;48.130;11.356;2022-12-10T14:51:20;94437.00;;;4.00
54746;BMP180;40640;48.130;11.356;2022-12-10T14:55:23;94453.00;;;3.90
54746;BMP180;40640;48.130;11.356;2022-12-10T14:59:29;94450.00;;;3.90
54746;BMP180;40640;48.130;11.356;2022-12-10T15:03:43;94458.00;;;4.00
54746;BMP180;40640;48.130;11.356;2022-12-10T15:07:53;94475.00;;;3.90
54746;BMP180;40640;48.130;11.356;2022-12-10T15:11:58;94474.00;;;4.00
54746;BMP180;40640;48.130;11.356;2022-12-10T15:16:01;94475.00;;;3.90
54746;BMP180;40640;48.130;11.356;2022-12-10T15:20:10;94481.00;;;3.90
54746;BMP180;40640;48.130;11.356;2022-12-10T15:24:26;94490.00;;;3.90
54746;BMP180;40640;48.130;11.356;2022-12-10T15:28:33;94493.00;;;3.90
54746;BMP180;40640;48.130;11.356;2022-12-10T15:32:36;94478.00;;;4.00
54746;BMP180;40640;48.130;11.356;2022-12-10T15:36:40;94496.00;;;3.70
54746;BMP180;40640;48.130;11.356;2022-12-10T15:40:45;94493.00;;;3.60
54746;BMP180;40640;48.130;11.356;2022-12-10T15:44:48;94500.00;;;3.70
54746;BMP180;40640;48.130;11.356;2022-12-10T15:48:50;94501.00;;;3.60
54746;BMP180;40640;48.130;11.356;2022-12-10T15:52:53;94499.00;;;3.60
54746;BMP180;40640;48.130;11.356;2022-12-10T15:56:57;94502.00;;;3.60
54746;BMP180;40640;48.130;11.356;2022-12-10T16:01:00;94506.00;;;3.80
54746;BMP180;40640;48.130;11.356;2022-12-10T16:05:11;94510.00;;;3.60
54746;BMP180;40640;48.130;11.356;2022-12-10T16:09:14;94517.00;;;3.50
54746;BMP180;40640;48.130;11.356;2022-12-10T16:13:20;94512.00;;;3.40
54746;BMP180;40640;48.130;11.356;2022-12-10T16:17:24;94517.00;;;3.40
54746;BMP180;40640;48.130;11.356;2022-12-10T16:21:26;94520.00;;;3.50
54746;BMP180;40640;48.130;11.356;2022-12-10T16:25:30;94525.00;;;3.50
54746;BMP180;40640;48.130;11.356;2022-12-10T16:29:35;94532.00;;;3.50
54746;BMP180;40640;48.130;11.356;2022-12-10T16:33:38;94541.00;;;3.50
54746;BMP180;40640;48.130;11.356;2022-12-10T16:37:42;94537.00;;;3.50
54746;BMP180;40640;48.130;11.356;2022-12-10T16:41:51;94544.00;;;3.50
54746;BMP180;40640;48.130;11.356;2022-12-10T16:45:55;94547.00;;;3.60
54746;BMP180;40640;48.130;11.356;2022-12-10T16:49:58;94536.00;;;3.50
54746;BMP180;40640;48.130;11.356;2022-12-10T16:54:01;94544.00;;;3.50
54746;BMP180;40640;48.130;11.356;2022-12-10T16:58:05;94548.00;;;3.50
54746;BMP180;40640;48.130;11.356;2022-12-10T17:02:15;94551.00;;;3.40
54746;BMP180;40640;48.130;11.356;2022-12-10T17:06:19;94557.00;;;3.30
54746;BMP180;40640;48.130;11.356;2022-12-10T17:10:22;94564.00;;;3.50
54746;BMP180;40640;48.130;11.356;2022-12-10T17:14:45;94565.00;;;3.40
54746;BMP180;40640;48.130;11.356;2022-12-10T17:18:50;94563.00;;;3.40
54746;BMP180;40640;48.130;11.356;2022-12-10T17:22:53;94570.00;;;3.30
54746;BMP180;40640;48.130;11.356;2022-12-10T17:26:58;94573.00;;;3.20
54746;BMP180;40640;48.130;11.356;2022-12-10T17:31:02;94575.00;;;3.30
54746;BMP180;40640;48.130;11.356;2022-12-10T17:35:07;94578.00;;;3.20
54746;BMP180;40640;48.130;11.356;2022-12-10T17:39:13;94572.00;;;3.20
54746;BMP180;40640;48.130;11.356;2022-12-10T17:43:22;94586.00;;;3.10
54746;BMP180;40640;48.130;11.356;2022-12-10T17:47:26;94590.00;;;3.20
54746;BMP180;40640;48.130;11.356;2022-12-10T17:51:31;94588.00;;;3.10
54746;BMP180;40640;48.130;11.356;2022-12-10T17:55:34;94588.00;;;3.10
54746;BMP180;40640;48.130;11.356;2022-12-10T17:59:37;94588.00;;;3.20
54746;BMP180;40640;48.130;11.356;2022-12-10T18:03:44;94592.00;;;3.20
54746;BMP180;40640;48.130;11.356;2022-12-10T18:07:49;94597.00;;;3.00
54746;BMP180;40640;48.130;11.356;2022-12-10T18:11:52;94597.00;;;3.00
54746;BMP180;40640;48.130;11.356;2022-12-10T18:15:55;94600.00;;;3.10
54746;BMP180;40640;48.130;11.356;2022-12-10T18:19:58;94607.00;;;3.10
54746;BMP180;40640;48.130;11.356;2022-12-10T18:24:02;94611.00;;;3.10
54746;BMP180;40640;48.130;11.356;2022-12-10T18:28:15;94608.00;;;3.10
54746;BMP180;40640;48.130;11.356;2022-12-10T18:32:38;94608.00;;;3.10
54746;BMP180;40640;48.130;11.356;2022-12-10T18:36:43;94605.00;;;3.10
54746;BMP180;40640;48.130;11.356;2022-12-10T18:40:47;94612.00;;;3.20
54746;BMP180;40640;48.130;11.356;2022-12-10T18:44:50;94609.00;;;3.20
54746;BMP180;40640;48.130;11.356;2022-12-10T18:48:53;94618.00;;;3.20
54746;BMP180;40640;48.130;11.356;2022-12-10T18:52:57;94618.00;;;3.20
54746;BMP180;40640;48.130;11.356;2022-12-10T18:57:01;94628.00;;;3.30
54746;BMP180;40640;48.130;11.356;2022-12-10T19:01:24;94631.00;;;3.30
54746;BMP180;40640;48.130;11.356;2022-12-10T19:05:27;94625.00;;;3.20
54746;BMP180;40640;48.130;11.356;2022-12-10T19:09:30;94641.00;;;3.30
54746;BMP180;40640;48.130;11.356;2022-12-10T19:13:37;94635.00;;;3.30
54746;BMP180;40640;48.130;11.356;2022-12-10T19:17:40;94638.00;;;3.30
54746;BMP180;40640;48.130;11.356;2022-12-10T19:21:44;94635.00;;;3.20
54746;BMP180;40640;48.130;11.356;2022-12-10T19:25:47;94637.00;;;3.20
54746;BMP180;40640;48.130;11.356;2022-12-10T19:29:51;94633.00;;;3.20
54746;BMP180;40640;48.130;11.356;2022-12-10T19:33:54;94633.00;;;3.20
54746;BMP180;40640;48.130;11.356;2022-12-10T19:37:56;94627.00;;;3.20
54746;BMP180;40640;48.130;11.356;2022-12-10T19:41:59;94641.00;;;3.20
54746;BMP180;40640;48.130;11.356;2022-12-10T19:46:10;94626.00;;;3.20
54746;BMP180;40640;48.130;11.356;2022-12-10T19:50:16;94628.00;;;3.20
54746;BMP180;40640;48.130;11.356;2022-12-10T19:54:19;94634.00;;;3.30
54746;BMP180;40640;48.130;11.356;2022-12-10T19:58:22;94643.00;;;3.20
54746;BMP180;40640;48.130;11.356;2022-12-10T20:02:26;94643.00;;;3.20
54746;BMP180;40640;48.130;11.356;2022-12-10T20:06:34;94632.00;;;3.20
54746;BMP180;40640;48.130;11.356;2022-12-10T20:10:38;94642.00;;;3.20
54746;BMP180;40640;48.130;11.356;2022-12-10T20:14:41;94636.00;;;3.20
54746;BMP180;40640;48.130;11.356;2022-12-10T20:18:46;94644.00;;;3.20
54746;BMP180;40640;48.130;11.356;2022-12-10T20:22:49;94651.00;;;3.20
54746;BMP180;40640;48.130;11.356;2022-12-10T20:26:52;94645.00;;;3.30
54746;BMP180;40640;48.130;11.356;2022-12-10T20:30:55;94637.00;;;3.20
54746;BMP180;40640;48.130;11.356;2022-12-10T20:34:59;94639.00;;;3.20
54746;BMP180;40640;48.130;11.356;2022-12-10T20:39:02;94647.00;;;3.20
54746;BMP180;40640;48.130;11.356;2022-12-10T20:43:05;94650.00;;;3.20
54746;BMP180;40640;48.130;11.356;2022-12-10T20:47:08;94643.00;;;3.20
54746;BMP180;40640;48.130;11.356;2022-12-10T20:51:13;94642.00;;;3.20
54746;BMP180;40640;48.130;11.356;2022-12-10T20:55:16;94644.00;;;3.20
54746;BMP180;40640;48.130;11.356;2022-12-10T20:59:19;94652.00;;;3.20
54746;BMP180;40640;48.130;11.356;2022-12-10T21:03:22;94652.00;;;3.20
54746;BMP180;40640;48.130;11.356;2022-12-10T21:07:26;94655.00;;;3.20
54746;BMP180;40640;48.130;11.356;2022-12-10T21:11:29;94656.00;;;3.20
54746;BMP180;40640;48.130;11.356;2022-12-10T21:15:32;94649.00;;;3.20
54746;BMP180;40640;48.130;11.356;2022-12-10T21:19:35;94663.00;;;3.40
54746;BMP180;40640;48.130;11.356;2022-12-10T21:23:39;94662.00;;;3.20
54746;BMP180;40640;48.130;11.356;2022-12-10T21:27:42;94665.00;;;3.20
54746;BMP180;40640;48.130;11.356;2022-12-10T21:31:45;94664.00;;;3.20
54746;BMP180;40640;48.130;11.356;2022-12-10T21:35:49;94660.00;;;3.20
54746;BMP180;40640;48.130;11.356;2022-12-10T21:39:53;94653.00;;;3.10
54746;BMP180;40640;48.130;11.356;2022-12-10T21:43:58;94657.00;;;3.20
54746;BMP180;40640;48.130;11.356;2022-12-10T21:48:00;94645.00;;;3.30
54746;BMP180;40640;48.130;11.356;2022-12-10T21:52:03;94649.00;;;3.30
54746;BMP180;40640;48.130;11.356;2022-12-10T21:56:09;94645.00;;;3.20
54746;BMP180;40640;48.130;11.356;2022-12-10T22:00:15;94652.00;;;3.20
54746;BMP180;40640;48.130;11.356;2022-12-10T22:04:17;94649.00;;;3.20
54746;BMP180;40640;48.130;11.356;2022-12-10T22:08:21;94654.00;;;3.20
54746;BMP180;40640;48.130;11.356;2022-12-10T22:12:25;94656.00;;;3.20
54746;BMP180;40640;48.130;11.356;2022-12-10T22:16:28;94661.00;;;3.20
54746;BMP180;40640;48.130;11.356;2022-12-10T22:20:31;94654.00;;;3.10
54746;BMP180;40640;48.130;11.356;2022-12-10T22:24:33;94653.00;;;3.10
54746;BMP180;40640;48.130;11.356;2022-12-10T22:28:37;94661.00;;;3.10
54746;BMP180;40640;48.130;11.356;2022-12-10T22:32:40;94665.00;;;3.10
54746;BMP180;40640;48.130;11.356;2022-12-10T22:36:44;94663.00;;;3.10
54746;BMP180;40640;48.130;11.356;2022-12-10T22:40:47;94659.00;;;3.10
54746;BMP180;40640;48.130;11.356;2022-12-10T22:44:51;94651.00;;;3.00
54746;BMP180;40640;48.130;11.356;2022-12-10T22:48:54;94657.00;;;3.00
54746;BMP180;40640;48.130;11.356;2022-12-10T22:52:56;94651.00;;;2.90
54746;BMP180;40640;48.130;11.356;2022-12-10T22:56:59;94653.00;;;3.00
54746;BMP180;40640;48.130;11.356;2022-12-10T23:01:04;94653.00;;;2.90
54746;BMP180;40640;48.130;11.356;2022-12-10T23:05:08;94651.00;;;2.90
54746;BMP180;40640;48.130;11.356;2022-12-10T23:09:11;94660.00;;;3.00
54746;BMP180;40640;48.130;11.356;2022-12-10T23:13:14;94658.00;;;2.90
54746;BMP180;40640;48.130;11.356;2022-12-10T23:17:23;94652.00;;;2.90
54746;BMP180;40640;48.130;11.356;2022-12-10T23:21:26;94657.00;;;2.90
54746;BMP180;40640;48.130;11.356;2022-12-10T23:25:28;94661.00;;;2.80
54746;BMP180;40640;48.130;11.356;2022-12-10T23:29:31;94650.00;;;2.80
54746;BMP180;40640;48.130;11.356;2022-12-10T23:33:36;94653.00;;;2.80